Time,TemperatureF,DewpointF,PressureIn,WindDirection,WindDirectionDegrees,WindSpeedMPH,WindSpeedGustMPH,Humidity,HourlyPrecipIn,Conditions,Clouds,dailyrainin,SoftwareType,DateUTC
2013-03-07 00:02:00,46.8,38.9,29.44,East,87,4.9,5.4,74,0.00,,-RA,0.00,VWS V14.01,2013-03-07 00:02:00,
2013-03-07 00:07:00,46.8,38.9,29.44,ENE,72,3.6,4.9,74,0.00,,-RA,0.00,VWS V14.01,2013-03-07 00:07:00,
2013-03-07 00:12:00,46.8,38.9,29.44,East,82,3.6,4.9,74,0.00,,-RA,0.00,VWS V14.01,2013-03-07 00:12:00,
2013-03-07 00:17:00,46.8,38.9,29.44,ENE,71,4.0,4.9,74,0.00,,-RA,0.00,VWS V14.01,2013-03-07 00:17:00,
2013-03-07 00:22:00,46.8,38.9,29.44,ENE,58,3.6,3.6,74,0.00,,-RA,0.00,VWS V14.01,2013-03-07 00:22:00,
2013-03-07 00:27:00,46.8,38.9,29.44,ENE,61,3.1,4.5,74,0.00,,-RA,0.00,VWS V14.01,2013-03-07 00:27:00,
2013-03-07 00:32:00,46.8,38.9,29.44,NE,49,4.0,4.0,74,0.00,,-RA,0.00,VWS V14.01,2013-03-07 00:32:00,
2013-03-07 00:37:00,46.8,38.9,29.44,ENE,64,2.7,4.0,74,0.00,,-RA,0.00,VWS V14.01,2013-03-07 00:37:00,
2013-03-07 00:42:00,46.8,38.9,29.44,East,97,0.0,2.2,74,0.00,,-RA,0.00,VWS V14.01,2013-03-07 00:42:00,
2013-03-07 00:47:00,46.8,38.9,29.44,East,90,0.0,0.0,74,0.00,,-RA,0.00,VWS V14.01,2013-03-07 00:47:00,
2013-03-07 00:52:00,46.8,38.9,29.44,ENE,67,0.0,0.0,74,0.00,,-RA,0.00,VWS V14.01,2013-03-07 00:52:00,
2013-03-07 00:57:00,46.8,38.9,29.44,ENE,64,3.6,5.4,74,0.00,,-RA,0.00,VWS V14.01,2013-03-07 00:57:00,
2013-03-07 01:02:00,46.8,38.9,29.44,ENE,72,3.1,4.0,74,0.00,,-RA,0.00,VWS V14.01,2013-03-07 01:02:00,
2013-03-07 01:07:00,46.8,38.9,29.44,East,91,2.7,3.1,74,0.00,,-RA,0.00,VWS V14.01,2013-03-07 01:07:00,
2013-03-07 01:12:00,46.8,38.9,29.44,ENE,78,0.0,0.0,74,0.00,,-RA,0.00,VWS V14.01,2013-03-07 01:12:00,
2013-03-07 01:17:00,46.8,38.9,29.44,ENE,74,3.6,3.6,74,0.00,,-RA,0.00,VWS V14.01,2013-03-07 01:17:00,
2013-03-07 01:23:00,46.0,41.2,29.44,East,85,0.0,0.0,83,0.04,,-RA,0.04,VWS V14.01,2013-03-07 01:23:00,
2013-03-07 01:28:00,46.0,41.2,29.44,ENE,61,2.2,3.1,83,0.04,,-RA,0.04,VWS V14.01,2013-03-07 01:28:00,
2013-03-07 01:33:00,46.0,41.2,29.44,East,89,2.2,2.7,83,0.04,,-RA,0.04,VWS V14.01,2013-03-07 01:33:00,
2013-03-07 01:38:00,46.0,41.2,29.44,East,80,0.0,0.0,83,0.04,,-RA,0.04,VWS V14.01,2013-03-07 01:38:00,
2013-03-07 01:43:00,46.0,41.2,29.44,ENE,78,0.0,0.0,83,0.04,,-RA,0.04,VWS V14.01,2013-03-07 01:43:00,
2013-03-07 01:48:00,46.0,41.2,29.44,ENE,78,3.1,4.0,83,0.04,,-RA,0.04,VWS V14.01,2013-03-07 01:48:00,
2013-03-07 01:53:00,46.0,41.2,29.44,East,86,3.1,4.9,83,0.04,,-RA,0.04,VWS V14.01,2013-03-07 01:53:00,
2013-03-07 01:58:00,46.0,41.2,29.44,East,90,3.6,5.4,83,0.04,,-RA,0.04,VWS V14.01,2013-03-07 01:58:00,
2013-03-07 02:03:00,46.0,41.2,29.44,ENE,65,4.9,4.9,83,0.04,,-RA,0.04,VWS V14.01,2013-03-07 02:03:00,
2013-03-07 02:08:00,46.0,41.2,29.44,East,79,3.1,4.5,83,0.04,,-RA,0.04,VWS V14.01,2013-03-07 02:08:00,
2013-03-07 02:13:00,46.0,41.2,29.41,ENE,70,2.7,4.0,83,0.04,,-RA,0.04,VWS V14.01,2013-03-07 02:13:00,
2013-03-07 02:18:00,46.0,41.2,29.41,East,82,3.6,4.0,83,0.04,,-RA,0.04,VWS V14.01,2013-03-07 02:18:00,
2013-03-07 02:23:00,46.0,41.2,29.41,East,98,2.7,4.5,83,0.04,,-RA,0.04,VWS V14.01,2013-03-07 02:23:00,
2013-03-07 02:28:00,46.0,41.2,29.41,East,87,4.0,5.8,83,0.00,,-RA,0.04,VWS V14.01,2013-03-07 02:28:00,
2013-03-07 02:33:00,46.0,41.2,29.41,ENE,72,4.9,4.9,83,0.00,,-RA,0.04,VWS V14.01,2013-03-07 02:33:00,
2013-03-07 02:38:00,46.0,41.2,29.41,East,91,3.1,4.0,83,0.00,,-RA,0.04,VWS V14.01,2013-03-07 02:38:00,
2013-03-07 02:43:00,46.0,41.2,29.41,East,83,3.6,3.6,83,0.00,,-RA,0.04,VWS V14.01,2013-03-07 02:43:00,
2013-03-07 02:48:00,46.0,41.2,29.41,East,85,3.6,3.6,83,0.00,,-RA,0.04,VWS V14.01,2013-03-07 02:48:00,
2013-03-07 02:53:00,46.0,41.2,29.41,East,92,0.0,0.0,83,0.00,,-RA,0.04,VWS V14.01,2013-03-07 02:53:00,
2013-03-07 02:58:00,46.0,41.2,29.41,ENE,77,3.1,3.1,83,0.00,,-RA,0.04,VWS V14.01,2013-03-07 02:58:00,
2013-03-07 03:03:00,46.0,41.2,29.41,East,80,2.7,3.6,83,0.00,,-RA,0.04,VWS V14.01,2013-03-07 03:03:00,
2013-03-07 03:08:00,46.0,41.2,29.41,ESE,104,2.2,4.0,83,0.00,,-RA,0.04,VWS V14.01,2013-03-07 03:08:00,
2013-03-07 03:13:00,46.0,41.2,29.41,East,90,3.1,4.0,83,0.00,,-RA,0.04,VWS V14.01,2013-03-07 03:13:00,
2013-03-07 03:18:00,46.0,41.2,29.41,ESE,110,2.7,2.7,83,0.00,,-RA,0.04,VWS V14.01,2013-03-07 03:18:00,
2013-03-07 03:24:00,46.0,41.2,29.41,East,100,0.0,3.1,83,0.00,,-RA,0.04,VWS V14.01,2013-03-07 03:24:00,
2013-03-07 03:29:00,46.0,41.2,29.41,East,88,2.7,2.7,83,0.00,,-RA,0.04,VWS V14.01,2013-03-07 03:29:00,
2013-03-07 03:34:00,46.0,41.2,29.41,ENE,65,4.0,4.0,83,0.04,,-RA,0.08,VWS V14.01,2013-03-07 03:34:00,
2013-03-07 03:39:00,46.0,41.2,29.41,East,88,4.9,5.4,83,0.04,,-RA,0.08,VWS V14.01,2013-03-07 03:39:00,
2013-03-07 03:44:00,46.0,41.2,29.41,ENE,73,4.5,4.5,83,0.04,,-RA,0.08,VWS V14.01,2013-03-07 03:44:00,
2013-03-07 03:49:00,46.0,41.2,29.41,East,88,2.7,3.1,83,0.04,,-RA,0.08,VWS V14.01,2013-03-07 03:49:00,
2013-03-07 03:54:00,46.0,41.2,29.41,East,83,4.9,4.9,83,0.04,,-RA,0.08,VWS V14.01,2013-03-07 03:54:00,
2013-03-07 03:59:00,46.0,41.2,29.41,NE,52,2.7,2.7,83,0.04,,-RA,0.08,VWS V14.01,2013-03-07 03:59:00,
2013-03-07 04:04:00,46.0,41.2,29.41,ENE,73,0.0,0.0,83,0.04,,-RA,0.08,VWS V14.01,2013-03-07 04:04:00,
2013-03-07 04:09:00,46.0,41.2,29.41,East,82,0.0,0.0,83,0.04,,-RA,0.08,VWS V14.01,2013-03-07 04:09:00,
2013-03-07 04:14:00,46.0,41.2,29.41,ENE,67,3.1,3.1,83,0.04,,-RA,0.08,VWS V14.01,2013-03-07 04:14:00,
2013-03-07 04:19:00,46.0,41.2,29.41,ENE,75,2.2,2.7,83,0.04,,-RA,0.08,VWS V14.01,2013-03-07 04:19:00,
2013-03-07 04:24:00,46.0,41.2,29.41,NE,48,3.1,3.1,83,0.04,,-RA,0.08,VWS V14.01,2013-03-07 04:24:00,
2013-03-07 04:29:00,46.0,41.2,29.38,NNE,22,0.0,3.6,83,0.04,,-RA,0.08,VWS V14.01,2013-03-07 04:29:00,
2013-03-07 04:34:00,46.0,41.2,29.38,NNE,19,3.1,3.6,83,0.00,,-RA,0.08,VWS V14.01,2013-03-07 04:34:00,
2013-03-07 04:39:00,46.0,41.2,29.38,East,89,2.7,3.6,83,0.00,,-RA,0.08,VWS V14.01,2013-03-07 04:39:00,
2013-03-07 04:44:00,46.0,41.2,29.38,ENE,77,3.1,3.6,83,0.00,,-RA,0.08,VWS V14.01,2013-03-07 04:44:00,
2013-03-07 04:49:00,46.0,41.2,29.38,ENE,75,3.6,4.0,83,0.00,,-RA,0.08,VWS V14.01,2013-03-07 04:49:00,
2013-03-07 04:54:00,46.0,41.2,29.38,East,79,5.4,5.8,83,0.00,,-RA,0.08,VWS V14.01,2013-03-07 04:54:00,
2013-03-07 04:59:00,46.0,41.2,29.38,ESE,105,3.1,4.0,83,0.00,,-RA,0.08,VWS V14.01,2013-03-07 04:59:00,
2013-03-07 05:00:00,46.0,41.2,29.38,ESE,115,3.1,5.8,83,0.00,,-RA,0.08,VWS V14.01,2013-03-07 05:00:00,
2013-03-07 05:01:00,46.0,41.2,29.38,East,81,2.7,5.4,83,0.00,,-RA,0.08,VWS V14.01,2013-03-07 05:01:00,
2013-03-07 05:06:00,46.0,41.2,29.38,ENE,75,3.6,4.0,83,0.00,,-RA,0.08,VWS V14.01,2013-03-07 05:06:00,
2013-03-07 05:11:00,46.0,41.2,29.38,ESE,119,3.1,3.1,83,0.00,,-RA,0.08,VWS V14.01,2013-03-07 05:11:00,
2013-03-07 05:16:00,46.0,41.2,29.38,ESE,107,2.7,3.6,83,0.00,,-RA,0.08,VWS V14.01,2013-03-07 05:16:00,
2013-03-07 05:21:00,46.0,41.2,29.38,East,84,3.1,3.6,83,0.00,,-RA,0.08,VWS V14.01,2013-03-07 05:21:00,
2013-03-07 05:27:00,46.0,41.2,29.38,ENE,63,4.0,4.0,83,0.00,,-RA,0.08,VWS V14.01,2013-03-07 05:27:00,
2013-03-07 05:32:00,46.0,41.2,29.38,East,99,3.1,4.0,83,0.00,,-RA,0.08,VWS V14.01,2013-03-07 05:32:00,
2013-03-07 05:37:00,46.0,41.2,29.38,ESE,106,4.0,4.0,83,0.00,,-RA,0.08,VWS V14.01,2013-03-07 05:37:00,
2013-03-07 05:42:00,46.0,41.2,29.38,East,89,2.2,4.0,83,0.00,,-RA,0.08,VWS V14.01,2013-03-07 05:42:00,
2013-03-07 05:47:00,46.0,41.2,29.38,East,89,0.0,3.1,83,0.00,,-RA,0.08,VWS V14.01,2013-03-07 05:47:00,
2013-03-07 05:52:00,46.0,41.2,29.38,ENE,68,2.7,4.0,83,0.00,,-RA,0.08,VWS V14.01,2013-03-07 05:52:00,
2013-03-07 05:57:00,46.0,41.2,29.38,ESE,120,2.7,4.0,83,0.00,,-RA,0.08,VWS V14.01,2013-03-07 05:57:00,
2013-03-07 06:02:00,46.0,41.2,29.38,East,90,2.2,3.6,83,0.00,,-RA,0.08,VWS V14.01,2013-03-07 06:02:00,
2013-03-07 06:07:00,46.2,45.7,29.38,ENE,70,3.1,3.6,98,0.04,,-RA,0.12,VWS V14.01,2013-03-07 06:07:00,
2013-03-07 06:12:00,46.2,45.7,29.38,ENE,72,3.1,3.1,98,0.04,,-RA,0.12,VWS V14.01,2013-03-07 06:12:00,
2013-03-07 06:17:00,46.2,45.7,29.38,ENE,73,2.7,3.6,98,0.04,,-RA,0.12,VWS V14.01,2013-03-07 06:17:00,
2013-03-07 06:22:00,46.2,45.7,29.38,ESE,117,3.1,3.1,98,0.04,,-RA,0.12,VWS V14.01,2013-03-07 06:22:00,
2013-03-07 06:27:00,46.2,45.7,29.38,ENE,74,3.6,3.6,98,0.04,,-RA,0.12,VWS V14.01,2013-03-07 06:27:00,
2013-03-07 06:32:00,46.2,45.7,29.38,ENE,72,2.7,3.1,98,0.04,,-RA,0.12,VWS V14.01,2013-03-07 06:32:00,
2013-03-07 06:37:00,46.4,45.9,29.38,ENE,75,0.0,0.0,98,0.04,,-RA,0.12,VWS V14.01,2013-03-07 06:37:00,
2013-03-07 06:42:00,46.4,45.9,29.38,East,94,2.7,3.6,98,0.04,,-RA,0.12,VWS V14.01,2013-03-07 06:42:00,
2013-03-07 06:47:00,46.6,46.0,29.38,ENE,75,0.0,2.7,98,0.04,,-RA,0.12,VWS V14.01,2013-03-07 06:47:00,
2013-03-07 06:52:00,46.6,46.0,29.38,ESE,120,3.6,4.0,98,0.04,,-RA,0.12,VWS V14.01,2013-03-07 06:52:00,
2013-03-07 06:57:00,46.6,46.0,29.38,East,98,0.0,3.1,98,0.04,,-RA,0.12,VWS V14.01,2013-03-07 06:57:00,
2013-03-07 07:02:00,46.6,46.0,29.38,ESE,105,2.7,2.7,98,0.04,,-RA,0.12,VWS V14.01,2013-03-07 07:02:00,
2013-03-07 07:07:00,46.6,46.0,29.38,ESE,118,2.2,2.7,98,0.00,,-RA,0.12,VWS V14.01,2013-03-07 07:07:00,
2013-03-07 07:12:00,46.6,46.0,29.38,SE,144,2.7,3.1,98,0.00,,-RA,0.12,VWS V14.01,2013-03-07 07:12:00,
2013-03-07 07:17:00,46.6,46.0,29.38,ESE,107,0.0,0.0,98,0.00,,-RA,0.12,VWS V14.01,2013-03-07 07:17:00,
2013-03-07 07:22:00,46.6,46.0,29.38,East,99,3.1,3.6,98,0.00,,-RA,0.12,VWS V14.01,2013-03-07 07:22:00,
2013-03-07 07:27:00,46.6,46.0,29.38,East,80,0.0,2.7,98,0.00,,-RA,0.12,VWS V14.01,2013-03-07 07:27:00,
2013-03-07 07:32:00,46.6,46.0,29.38,ENE,75,0.0,3.6,98,0.00,,-RA,0.12,VWS V14.01,2013-03-07 07:32:00,
2013-03-07 07:37:00,46.6,46.0,29.38,East,85,0.0,3.1,98,0.00,,-RA,0.12,VWS V14.01,2013-03-07 07:37:00,
2013-03-07 07:42:00,46.6,46.0,29.38,ENE,75,0.0,3.1,98,0.00,,-RA,0.12,VWS V14.01,2013-03-07 07:42:00,
2013-03-07 07:47:00,46.6,46.0,29.38,ENE,78,3.1,4.0,98,0.00,,-RA,0.12,VWS V14.01,2013-03-07 07:47:00,
2013-03-07 07:52:00,46.6,46.0,29.38,NE,40,5.4,5.8,98,0.00,,-RA,0.12,VWS V14.01,2013-03-07 07:52:00,
2013-03-07 07:57:00,46.6,46.0,29.38,East,81,5.4,5.4,98,0.00,,-RA,0.12,VWS V14.01,2013-03-07 07:57:00,
2013-03-07 08:02:00,46.6,46.0,29.38,East,97,3.6,6.3,98,0.00,,-RA,0.12,VWS V14.01,2013-03-07 08:02:00,
2013-03-07 08:07:00,46.6,46.0,29.38,East,83,4.9,5.8,98,0.00,,-RA,0.12,VWS V14.01,2013-03-07 08:07:00,
2013-03-07 08:12:00,46.6,46.0,29.38,ENE,63,3.6,3.6,98,0.00,,-RA,0.12,VWS V14.01,2013-03-07 08:12:00,
2013-03-07 08:17:00,46.6,46.0,29.38,ENE,78,5.4,5.4,98,0.04,,-RA,0.16,VWS V14.01,2013-03-07 08:17:00,
2013-03-07 08:22:00,46.6,46.0,29.38,East,100,4.0,4.0,98,0.04,,-RA,0.16,VWS V14.01,2013-03-07 08:22:00,
2013-03-07 08:27:00,46.6,46.0,29.38,ENE,68,2.7,2.7,98,0.04,,-RA,0.16,VWS V14.01,2013-03-07 08:27:00,
2013-03-07 08:32:00,46.6,46.0,29.38,ESE,111,3.1,3.6,98,0.04,,-RA,0.16,VWS V14.01,2013-03-07 08:32:00,
2013-03-07 08:37:00,46.6,46.0,29.38,East,92,3.6,4.0,98,0.04,,-RA,0.16,VWS V14.01,2013-03-07 08:37:00,
2013-03-07 08:42:00,46.6,46.0,29.38,ENE,64,5.4,5.4,98,0.04,,-RA,0.16,VWS V14.01,2013-03-07 08:42:00,
2013-03-07 08:47:00,46.6,46.0,29.38,NE,44,4.9,4.9,98,0.04,,-RA,0.16,VWS V14.01,2013-03-07 08:47:00,
2013-03-07 08:52:00,46.6,46.0,29.38,East,97,3.1,3.6,98,0.04,,-RA,0.16,VWS V14.01,2013-03-07 08:52:00,
2013-03-07 08:57:00,46.6,46.0,29.38,East,92,3.6,3.6,98,0.04,,-RA,0.16,VWS V14.01,2013-03-07 08:57:00,
2013-03-07 09:03:00,46.6,46.0,29.38,East,79,2.7,4.9,98,0.04,,-RA,0.16,VWS V14.01,2013-03-07 09:03:00,
2013-03-07 09:08:00,46.6,46.0,29.38,NNE,28,4.0,4.9,98,0.04,,-RA,0.16,VWS V14.01,2013-03-07 09:08:00,
2013-03-07 09:13:00,46.6,46.0,29.38,ENE,61,0.0,4.0,98,0.04,,-RA,0.16,VWS V14.01,2013-03-07 09:13:00,
2013-03-07 09:18:00,46.6,46.0,29.38,ENE,71,4.0,4.0,98,0.00,,-RA,0.16,VWS V14.01,2013-03-07 09:18:00,
2013-03-07 09:23:00,46.6,46.0,29.38,East,87,3.6,3.6,98,0.00,,-RA,0.16,VWS V14.01,2013-03-07 09:23:00,
2013-03-07 09:28:00,46.6,46.0,29.38,NE,52,3.6,4.9,98,0.00,,-RA,0.16,VWS V14.01,2013-03-07 09:28:00,
2013-03-07 09:33:00,46.6,46.0,29.38,NE,55,3.1,3.1,98,0.00,,-RA,0.16,VWS V14.01,2013-03-07 09:33:00,
2013-03-07 09:38:00,46.6,46.0,29.38,East,87,4.9,4.9,98,0.00,,-RA,0.16,VWS V14.01,2013-03-07 09:38:00,
2013-03-07 09:43:00,46.6,46.0,29.38,ENE,75,5.4,5.4,98,0.00,,-RA,0.16,VWS V14.01,2013-03-07 09:43:00,
2013-03-07 09:48:00,46.6,46.0,29.38,East,90,4.9,5.4,98,0.00,,-RA,0.16,VWS V14.01,2013-03-07 09:48:00,
2013-03-07 09:53:00,46.6,46.0,29.38,ESE,108,2.7,5.4,98,0.00,,-RA,0.16,VWS V14.01,2013-03-07 09:53:00,
2013-03-07 09:58:00,46.6,46.0,29.38,East,88,3.6,4.9,98,0.00,,-RA,0.16,VWS V14.01,2013-03-07 09:58:00,
2013-03-07 10:03:00,46.6,46.0,29.38,East,93,4.0,4.0,98,0.00,,-RA,0.16,VWS V14.01,2013-03-07 10:03:00,
2013-03-07 10:08:00,46.6,46.0,29.38,SE,127,4.9,4.9,98,0.00,,-RA,0.16,VWS V14.01,2013-03-07 10:08:00,
2013-03-07 10:14:00,46.6,46.0,29.38,East,96,2.7,4.9,98,0.00,,-RA,0.16,VWS V14.01,2013-03-07 10:14:00,
2013-03-07 10:19:00,46.6,46.0,29.38,ENE,76,6.3,7.6,98,0.00,,-RA,0.16,VWS V14.01,2013-03-07 10:19:00,
2013-03-07 10:24:00,46.6,46.0,29.38,ENE,78,6.3,6.3,98,0.00,,-RA,0.16,VWS V14.01,2013-03-07 10:24:00,
2013-03-07 10:29:00,46.6,46.0,29.35,East,99,0.0,5.4,98,0.00,,-RA,0.16,VWS V14.01,2013-03-07 10:29:00,
2013-03-07 10:34:00,46.6,46.0,29.35,ESE,103,4.9,5.8,98,0.00,,-RA,0.16,VWS V14.01,2013-03-07 10:34:00,
2013-03-07 10:39:00,46.6,46.0,29.35,ENE,71,4.9,4.9,98,0.00,,-RA,0.16,VWS V14.01,2013-03-07 10:39:00,
2013-03-07 10:44:00,46.6,46.0,29.35,East,93,4.0,4.0,98,0.00,,-RA,0.16,VWS V14.01,2013-03-07 10:44:00,
2013-03-07 10:49:00,46.6,46.0,29.35,ESE,105,4.0,4.0,98,0.00,,-RA,0.16,VWS V14.01,2013-03-07 10:49:00,
2013-03-07 10:54:00,46.6,46.0,29.35,ENE,68,4.0,4.0,98,0.00,,-RA,0.16,VWS V14.01,2013-03-07 10:54:00,
2013-03-07 10:59:00,46.6,46.0,29.35,ENE,66,4.0,4.9,98,0.00,,-RA,0.16,VWS V14.01,2013-03-07 10:59:00,
2013-03-07 11:04:00,46.6,46.0,29.35,East,83,3.6,5.4,98,0.00,,-RA,0.16,VWS V14.01,2013-03-07 11:04:00,
2013-03-07 11:09:00,46.6,46.0,29.35,East,94,3.1,3.1,98,0.00,,-RA,0.16,VWS V14.01,2013-03-07 11:09:00,
2013-03-07 11:14:00,46.6,46.0,29.35,ENE,67,5.4,5.4,98,0.00,,-RA,0.16,VWS V14.01,2013-03-07 11:14:00,
2013-03-07 11:19:00,46.6,46.0,29.35,East,93,3.6,4.0,98,0.00,,-RA,0.16,VWS V14.01,2013-03-07 11:19:00,
2013-03-07 11:24:00,46.6,46.0,29.35,East,86,2.7,3.6,98,0.04,,-RA,0.20,VWS V14.01,2013-03-07 11:24:00,
2013-03-07 11:29:00,46.6,46.0,29.35,ENE,67,2.7,3.1,98,0.04,,-RA,0.20,VWS V14.01,2013-03-07 11:29:00,
2013-03-07 11:34:00,46.6,46.0,29.35,East,79,2.7,3.6,98,0.04,,-RA,0.20,VWS V14.01,2013-03-07 11:34:00,
2013-03-07 11:39:00,46.6,46.0,29.35,East,90,3.1,5.4,98,0.04,,-RA,0.20,VWS V14.01,2013-03-07 11:39:00,
2013-03-07 11:44:00,46.6,46.0,29.35,East,79,3.6,4.0,98,0.04,,-RA,0.20,VWS V14.01,2013-03-07 11:44:00,
2013-03-07 11:49:00,46.6,46.0,29.35,ENE,67,3.1,3.1,98,0.04,,-RA,0.20,VWS V14.01,2013-03-07 11:49:00,
2013-03-07 11:55:00,46.6,46.0,29.35,NE,56,2.7,4.0,98,0.04,,-RA,0.20,VWS V14.01,2013-03-07 11:55:00,
2013-03-07 12:00:00,46.6,46.0,29.35,East,92,3.1,4.0,98,0.04,,-RA,0.20,VWS V14.01,2013-03-07 12:00:00,
2013-03-07 12:05:00,46.6,46.0,29.35,North,353,3.6,3.6,98,0.04,,-RA,0.20,VWS V14.01,2013-03-07 12:05:00,
2013-03-07 12:10:00,46.6,46.0,29.35,East,91,3.6,3.6,98,0.04,,-RA,0.20,VWS V14.01,2013-03-07 12:10:00,
2013-03-07 12:15:00,46.6,46.0,29.35,ENE,67,3.1,4.9,98,0.04,,-RA,0.20,VWS V14.01,2013-03-07 12:15:00,
2013-03-07 12:20:00,46.6,46.0,29.35,North,353,3.6,5.8,98,0.00,,-RA,0.20,VWS V14.01,2013-03-07 12:20:00,
2013-03-07 12:25:00,46.6,46.0,29.35,North,353,3.6,5.8,98,0.00,,-RA,0.20,VWS V14.01,2013-03-07 12:25:00,
2013-03-07 12:30:00,46.6,46.0,29.35,North,353,4.5,5.4,98,0.00,,-RA,0.20,VWS V14.01,2013-03-07 12:30:00,
2013-03-07 12:35:00,46.6,46.0,29.35,North,353,3.1,5.4,98,0.00,,-RA,0.20,VWS V14.01,2013-03-07 12:35:00,
2013-03-07 12:40:00,46.6,46.0,29.35,East,88,4.0,4.9,98,0.00,,-RA,0.20,VWS V14.01,2013-03-07 12:40:00,
2013-03-07 12:45:00,46.6,46.0,29.32,North,353,6.3,6.3,98,0.00,,-RA,0.20,VWS V14.01,2013-03-07 12:45:00,
2013-03-07 12:50:00,46.6,46.0,29.32,North,353,4.5,5.4,98,0.00,,-RA,0.20,VWS V14.01,2013-03-07 12:50:00,
2013-03-07 12:55:00,46.6,46.0,29.32,North,353,2.7,3.6,98,0.00,,-RA,0.20,VWS V14.01,2013-03-07 12:55:00,
2013-03-07 13:01:00,46.6,46.0,29.32,North,353,6.3,6.3,98,0.00,,-RA,0.20,VWS V14.01,2013-03-07 13:01:00,
2013-03-07 13:06:00,46.6,46.0,29.32,North,353,3.1,5.8,98,0.00,,-RA,0.20,VWS V14.01,2013-03-07 13:06:00,
2013-03-07 13:11:00,46.6,46.0,29.32,North,353,5.8,5.8,98,0.00,,-RA,0.20,VWS V14.01,2013-03-07 13:11:00,
2013-03-07 13:16:00,46.6,46.0,29.32,North,353,3.1,5.4,98,0.00,,-RA,0.20,VWS V14.01,2013-03-07 13:16:00,
2013-03-07 13:21:00,46.6,46.0,29.32,North,353,2.7,5.4,98,0.00,,-RA,0.20,VWS V14.01,2013-03-07 13:21:00,
2013-03-07 13:26:00,46.6,46.0,29.32,North,353,3.6,6.3,98,0.00,,-RA,0.20,VWS V14.01,2013-03-07 13:26:00,
2013-03-07 13:31:00,46.6,46.0,29.32,North,353,4.0,4.0,98,0.00,,-RA,0.20,VWS V14.01,2013-03-07 13:31:00,
2013-03-07 13:36:00,46.6,46.0,29.32,North,353,6.3,6.3,98,0.00,,-RA,0.20,VWS V14.01,2013-03-07 13:36:00,
2013-03-07 13:41:00,46.6,46.0,29.32,North,353,2.7,4.9,98,0.00,,-RA,0.20,VWS V14.01,2013-03-07 13:41:00,
2013-03-07 13:46:00,46.6,46.0,29.32,North,353,5.8,6.3,98,0.00,,-RA,0.20,VWS V14.01,2013-03-07 13:46:00,
2013-03-07 13:51:00,46.6,46.0,29.32,East,84,4.9,5.8,98,0.00,,-RA,0.20,VWS V14.01,2013-03-07 13:51:00,
2013-03-07 13:56:00,46.6,46.0,29.32,North,353,3.1,6.3,98,0.00,,-RA,0.20,VWS V14.01,2013-03-07 13:56:00,
2013-03-07 14:01:00,46.6,46.0,29.32,North,353,6.3,6.7,98,0.00,,-RA,0.20,VWS V14.01,2013-03-07 14:01:00,
2013-03-07 14:06:00,46.6,46.0,29.32,North,353,4.9,6.3,98,0.00,,-RA,0.20,VWS V14.01,2013-03-07 14:06:00,
2013-03-07 14:11:00,46.6,46.0,29.32,North,353,2.7,5.4,98,0.00,,-RA,0.20,VWS V14.01,2013-03-07 14:11:00,
2013-03-07 14:16:00,46.6,46.0,29.32,North,353,5.4,6.3,98,0.00,,-RA,0.20,VWS V14.01,2013-03-07 14:16:00,
2013-03-07 14:21:00,46.6,46.0,29.32,North,353,3.1,5.8,98,0.00,,-RA,0.20,VWS V14.01,2013-03-07 14:21:00,
2013-03-07 14:26:00,46.6,46.0,29.32,North,353,3.6,5.4,98,0.00,,-RA,0.20,VWS V14.01,2013-03-07 14:26:00,
2013-03-07 14:31:00,46.6,46.0,29.32,East,83,4.0,4.0,98,0.00,,-RA,0.20,VWS V14.01,2013-03-07 14:31:00,
2013-03-07 14:36:00,46.6,46.0,29.32,North,353,5.4,5.4,98,0.00,,-RA,0.20,VWS V14.01,2013-03-07 14:36:00,
2013-03-07 14:41:00,46.6,46.0,29.32,ESE,109,0.0,4.0,98,0.00,,-RA,0.20,VWS V14.01,2013-03-07 14:41:00,
2013-03-07 14:46:00,46.6,46.0,29.32,North,353,3.6,4.0,98,0.00,,-RA,0.20,VWS V14.01,2013-03-07 14:46:00,
2013-03-07 14:51:00,46.6,46.0,29.32,North,353,4.9,4.9,98,0.00,,-RA,0.20,VWS V14.01,2013-03-07 14:51:00,
2013-03-07 14:56:00,46.6,46.0,29.32,North,353,7.6,7.6,98,0.00,,-RA,0.20,VWS V14.01,2013-03-07 14:56:00,
2013-03-07 15:01:00,46.6,46.0,29.32,North,353,5.8,7.2,98,0.00,,-RA,0.20,VWS V14.01,2013-03-07 15:01:00,
2013-03-07 15:06:00,46.6,46.0,29.32,North,353,5.8,5.8,98,0.00,,-RA,0.20,VWS V14.01,2013-03-07 15:06:00,
2013-03-07 15:11:00,46.6,46.0,29.32,North,353,0.0,5.4,98,0.00,,-RA,0.20,VWS V14.01,2013-03-07 15:11:00,
2013-03-07 15:16:00,46.6,46.0,29.29,North,353,5.8,5.8,98,0.00,,-RA,0.20,VWS V14.01,2013-03-07 15:16:00,
2013-03-07 15:21:00,46.6,46.0,29.29,North,353,6.7,7.6,98,0.00,,-RA,0.20,VWS V14.01,2013-03-07 15:21:00,
2013-03-07 15:26:00,46.6,46.0,29.29,North,353,4.0,5.8,98,0.00,,-RA,0.20,VWS V14.01,2013-03-07 15:26:00,
2013-03-07 15:31:00,46.6,46.0,29.32,North,353,4.0,5.4,98,0.00,,-RA,0.20,VWS V14.01,2013-03-07 15:31:00,
2013-03-07 15:36:00,46.6,46.0,29.32,North,353,3.1,4.9,98,0.00,,-RA,0.20,VWS V14.01,2013-03-07 15:36:00,
2013-03-07 15:41:00,46.6,46.0,29.32,North,353,5.4,6.7,98,0.00,,-RA,0.20,VWS V14.01,2013-03-07 15:41:00,
2013-03-07 15:47:00,46.6,46.0,29.32,North,353,5.8,6.3,98,0.00,,-RA,0.20,VWS V14.01,2013-03-07 15:47:00,
2013-03-07 15:52:00,46.6,46.0,29.32,North,353,5.4,8.1,98,0.00,,-RA,0.20,VWS V14.01,2013-03-07 15:52:00,
2013-03-07 15:57:00,46.6,46.0,29.32,North,353,4.0,4.0,98,0.00,,-RA,0.20,VWS V14.01,2013-03-07 15:57:00,
2013-03-07 16:02:00,46.6,46.0,29.32,ENE,74,5.4,5.4,98,0.00,,,0.20,VWS V14.01,2013-03-07 16:02:00,
2013-03-07 16:07:00,46.6,46.0,29.32,ENE,64,5.8,5.8,98,0.00,,,0.20,VWS V14.01,2013-03-07 16:07:00,
2013-03-07 16:12:00,46.6,46.0,29.32,ENE,76,6.3,6.3,98,0.00,,,0.20,VWS V14.01,2013-03-07 16:12:00,
2013-03-07 16:17:00,46.6,46.0,29.32,East,91,4.9,5.4,98,0.00,,,0.20,VWS V14.01,2013-03-07 16:17:00,
2013-03-07 16:22:00,46.6,46.0,29.32,East,85,4.9,5.4,98,0.00,,,0.20,VWS V14.01,2013-03-07 16:22:00,
2013-03-07 16:27:00,46.6,46.0,29.32,East,92,5.4,5.8,98,0.00,,,0.20,VWS V14.01,2013-03-07 16:27:00,
2013-03-07 16:32:00,46.6,46.0,29.32,ENE,74,4.0,4.0,98,0.00,,,0.20,VWS V14.01,2013-03-07 16:32:00,
2013-03-07 16:37:00,46.6,46.0,29.32,East,88,3.6,4.9,98,0.00,,,0.20,VWS V14.01,2013-03-07 16:37:00,
2013-03-07 16:42:00,46.6,46.0,29.32,ESE,108,4.0,4.0,98,0.00,,,0.20,VWS V14.01,2013-03-07 16:42:00,
2013-03-07 16:47:00,46.6,46.0,29.32,ENE,78,6.3,6.3,98,0.00,,,0.20,VWS V14.01,2013-03-07 16:47:00,
2013-03-07 16:52:00,46.6,46.0,29.32,ENE,66,4.9,5.4,98,0.00,,,0.20,VWS V14.01,2013-03-07 16:52:00,
2013-03-07 16:57:00,46.6,46.0,29.29,East,79,3.6,4.0,98,0.00,,,0.20,VWS V14.01,2013-03-07 16:57:00,
2013-03-07 17:02:00,46.6,46.0,29.29,ENE,69,3.6,4.0,98,0.00,,,0.20,VWS V14.01,2013-03-07 17:02:00,
2013-03-07 17:08:00,46.6,46.0,29.29,East,85,2.7,5.4,98,0.00,,,0.20,VWS V14.01,2013-03-07 17:08:00,
2013-03-07 17:13:00,46.6,46.0,29.29,NE,54,4.0,5.8,98,0.00,,,0.20,VWS V14.01,2013-03-07 17:13:00,
2013-03-07 17:18:00,46.6,46.0,29.29,East,101,4.9,4.9,98,0.00,,,0.20,VWS V14.01,2013-03-07 17:18:00,
2013-03-07 17:23:00,46.6,46.0,29.29,East,88,3.6,4.9,98,0.00,,,0.20,VWS V14.01,2013-03-07 17:23:00,
2013-03-07 17:28:00,46.6,46.0,29.32,East,91,2.7,3.6,98,0.00,,,0.20,VWS V14.01,2013-03-07 17:28:00,
2013-03-07 17:33:00,46.6,46.0,29.32,ESE,107,4.0,4.0,98,0.00,,,0.20,VWS V14.01,2013-03-07 17:33:00,
2013-03-07 17:38:00,46.6,46.0,29.32,ENE,58,5.4,5.4,98,0.00,,,0.20,VWS V14.01,2013-03-07 17:38:00,
2013-03-07 17:44:00,46.6,46.0,29.32,East,95,3.6,4.0,98,0.00,,,0.20,VWS V14.01,2013-03-07 17:44:00,
2013-03-07 17:49:00,46.6,46.0,29.32,ENE,77,4.9,4.9,98,0.00,,,0.20,VWS V14.01,2013-03-07 17:49:00,
2013-03-07 17:54:00,46.6,46.0,29.32,East,89,3.1,5.4,98,0.00,,,0.20,VWS V14.01,2013-03-07 17:54:00,
2013-03-07 17:59:00,46.6,46.0,29.32,ENE,65,3.6,4.0,98,0.00,,,0.20,VWS V14.01,2013-03-07 17:59:00,
2013-03-07 18:04:00,46.6,46.0,29.32,East,85,3.6,5.4,98,0.00,,,0.20,VWS V14.01,2013-03-07 18:04:00,
2013-03-07 18:09:00,46.6,46.0,29.32,East,98,3.6,3.6,98,0.00,,,0.20,VWS V14.01,2013-03-07 18:09:00,
2013-03-07 18:14:00,46.6,46.0,29.32,ESE,109,3.6,3.6,98,0.00,,,0.20,VWS V14.01,2013-03-07 18:14:00,
2013-03-07 18:19:00,46.6,46.0,29.32,ENE,71,3.1,4.0,98,0.00,,,0.20,VWS V14.01,2013-03-07 18:19:00,
2013-03-07 18:24:00,46.6,46.0,29.32,ESE,103,4.9,5.4,98,0.00,,,0.20,VWS V14.01,2013-03-07 18:24:00,
2013-03-07 18:29:00,50.4,49.8,29.32,ESE,104,4.0,4.0,98,0.00,,,0.20,VWS V14.01,2013-03-07 18:29:00,
2013-03-07 18:34:00,50.4,49.8,29.32,ESE,114,2.7,2.7,98,0.00,,,0.20,VWS V14.01,2013-03-07 18:34:00,
2013-03-07 18:39:00,50.4,49.8,29.32,ESE,121,3.1,4.0,98,0.00,,,0.20,VWS V14.01,2013-03-07 18:39:00,
2013-03-07 18:44:00,50.5,50.0,29.32,East,97,3.6,3.6,98,0.00,,,0.20,VWS V14.01,2013-03-07 18:44:00,
2013-03-07 18:49:00,50.5,50.0,29.32,East,101,2.7,2.7,98,0.00,,,0.20,VWS V14.01,2013-03-07 18:49:00,
2013-03-07 18:54:00,50.5,50.0,29.32,East,98,4.5,4.5,98,0.00,,,0.20,VWS V14.01,2013-03-07 18:54:00,
2013-03-07 18:59:00,50.5,50.0,29.32,East,89,3.1,3.1,98,0.00,,,0.20,VWS V14.01,2013-03-07 18:59:00,
2013-03-07 19:04:00,50.5,50.0,29.32,East,100,0.0,3.1,98,0.00,,,0.20,VWS V14.01,2013-03-07 19:04:00,
2013-03-07 19:09:00,50.5,50.0,29.32,East,93,0.0,0.0,98,0.00,,,0.20,VWS V14.01,2013-03-07 19:09:00,
2013-03-07 19:14:00,50.5,50.0,29.32,ENE,76,0.0,0.0,98,0.00,,,0.20,VWS V14.01,2013-03-07 19:14:00,
2013-03-07 19:20:00,50.5,50.0,29.32,ENE,65,0.0,2.7,98,0.00,,,0.20,VWS V14.01,2013-03-07 19:20:00,
2013-03-07 19:25:00,50.5,50.0,29.32,North,353,2.7,2.7,98,0.00,,,0.20,VWS V14.01,2013-03-07 19:25:00,
2013-03-07 19:30:00,50.5,50.0,29.32,East,89,2.7,3.1,98,0.00,,,0.20,VWS V14.01,2013-03-07 19:30:00,
2013-03-07 19:35:00,50.5,50.0,29.32,North,353,3.1,3.6,98,0.00,,,0.20,VWS V14.01,2013-03-07 19:35:00,
2013-03-07 19:40:00,50.5,50.0,29.32,ENE,67,2.7,2.7,98,0.00,,,0.20,VWS V14.01,2013-03-07 19:40:00,
2013-03-07 19:45:00,50.5,50.0,29.32,ESE,118,0.0,0.0,98,0.00,,,0.20,VWS V14.01,2013-03-07 19:45:00,
2013-03-07 19:50:00,50.5,50.0,29.32,ESE,114,3.6,3.6,98,0.00,,,0.20,VWS V14.01,2013-03-07 19:50:00,
2013-03-07 19:55:00,50.5,50.0,29.32,North,353,0.0,0.0,98,0.00,,,0.20,VWS V14.01,2013-03-07 19:55:00,
2013-03-07 20:00:00,50.5,50.0,29.32,ESE,114,0.0,0.0,98,0.00,,,0.20,VWS V14.01,2013-03-07 20:00:00,
2013-03-07 20:05:00,50.5,50.0,29.32,North,353,0.0,0.0,98,0.00,,,0.20,VWS V14.01,2013-03-07 20:05:00,
2013-03-07 20:10:00,50.5,50.0,29.32,East,86,0.0,0.0,98,0.00,,,0.20,VWS V14.01,2013-03-07 20:10:00,
2013-03-07 20:15:00,50.5,50.0,29.32,ENE,71,0.0,0.0,98,0.00,,,0.20,VWS V14.01,2013-03-07 20:15:00,
2013-03-07 20:20:00,50.5,50.0,29.32,North,353,0.0,2.7,98,0.00,,,0.20,VWS V14.01,2013-03-07 20:20:00,
2013-03-07 20:25:00,50.5,50.0,29.32,North,353,2.2,3.1,98,0.00,,,0.20,VWS V14.01,2013-03-07 20:25:00,
2013-03-07 20:30:00,50.5,50.0,29.32,North,353,0.0,3.6,98,0.00,,,0.20,VWS V14.01,2013-03-07 20:30:00,
2013-03-07 20:35:00,50.5,50.0,29.32,North,353,3.1,3.6,98,0.00,,,0.20,VWS V14.01,2013-03-07 20:35:00,
2013-03-07 20:41:00,50.5,50.0,29.32,North,353,3.6,3.6,98,0.00,,,0.20,VWS V14.01,2013-03-07 20:41:00,
2013-03-07 20:46:00,50.5,50.0,29.32,North,353,4.5,4.5,98,0.00,,,0.20,VWS V14.01,2013-03-07 20:46:00,
2013-03-07 20:51:00,50.5,50.0,29.32,North,353,3.1,4.0,98,0.00,,,0.20,VWS V14.01,2013-03-07 20:51:00,
2013-03-07 20:56:00,50.5,50.0,29.32,ESE,102,4.0,4.0,98,0.00,,,0.20,VWS V14.01,2013-03-07 20:56:00,
2013-03-07 21:01:00,50.5,50.0,29.32,SE,129,4.0,4.0,98,0.00,,,0.20,VWS V14.01,2013-03-07 21:01:00,
2013-03-07 21:06:00,50.5,50.0,29.32,North,353,0.0,0.0,98,0.00,,,0.20,VWS V14.01,2013-03-07 21:06:00,
2013-03-07 21:11:00,50.5,50.0,29.32,North,353,0.0,0.0,98,0.00,,,0.20,VWS V14.01,2013-03-07 21:11:00,
2013-03-07 21:16:00,50.5,50.0,29.32,SE,127,0.0,0.0,98,0.00,,,0.20,VWS V14.01,2013-03-07 21:16:00,
2013-03-07 21:21:00,50.5,50.0,29.32,North,353,0.0,0.0,98,0.00,,,0.20,VWS V14.01,2013-03-07 21:21:00,
2013-03-07 21:26:00,50.5,50.0,29.32,North,353,0.0,0.0,98,0.00,,,0.20,VWS V14.01,2013-03-07 21:26:00,
2013-03-07 21:31:00,50.5,50.0,29.32,NNE,16,0.0,0.0,98,0.00,,,0.20,VWS V14.01,2013-03-07 21:31:00,
2013-03-07 21:36:00,50.5,50.0,29.32,NE,46,0.0,0.0,98,0.00,,,0.20,VWS V14.01,2013-03-07 21:36:00,
2013-03-07 21:41:00,50.5,50.0,29.32,North,353,0.0,0.0,98,0.00,,,0.20,VWS V14.01,2013-03-07 21:41:00,
2013-03-07 21:47:00,50.5,50.0,29.32,North,353,0.0,2.2,98,0.00,,,0.20,VWS V14.01,2013-03-07 21:47:00,
2013-03-07 21:52:00,50.5,50.0,29.32,North,353,3.6,3.6,98,0.00,,,0.20,VWS V14.01,2013-03-07 21:52:00,
2013-03-07 21:57:00,50.5,50.0,29.32,ENE,74,0.0,0.0,98,0.00,,,0.20,VWS V14.01,2013-03-07 21:57:00,
2013-03-07 22:02:00,50.5,50.0,29.32,North,353,2.2,5.4,98,0.00,,,0.20,VWS V14.01,2013-03-07 22:02:00,
2013-03-07 22:07:00,50.5,50.0,29.32,North,353,2.7,3.6,98,0.00,,,0.20,VWS V14.01,2013-03-07 22:07:00,
2013-03-07 22:12:00,50.5,50.0,29.32,North,353,4.0,4.0,98,0.00,,,0.20,VWS V14.01,2013-03-07 22:12:00,
2013-03-07 22:17:00,50.5,50.0,29.32,ENE,77,2.2,2.2,98,0.00,,,0.20,VWS V14.01,2013-03-07 22:17:00,
2013-03-07 22:22:00,50.5,50.0,29.32,North,353,0.0,3.6,98,0.00,,,0.20,VWS V14.01,2013-03-07 22:22:00,
2013-03-07 22:27:00,50.5,50.0,29.32,North,353,3.6,4.0,98,0.00,,,0.20,VWS V14.01,2013-03-07 22:27:00,
2013-03-07 22:33:00,50.5,50.0,29.32,North,353,4.9,4.9,98,0.00,,,0.20,VWS V14.01,2013-03-07 22:33:00,
2013-03-07 22:38:00,50.5,50.0,29.32,North,353,2.7,4.0,98,0.00,,,0.20,VWS V14.01,2013-03-07 22:38:00,
2013-03-07 22:43:00,50.5,50.0,29.32,North,353,3.1,3.6,98,0.00,,,0.20,VWS V14.01,2013-03-07 22:43:00,
2013-03-07 22:48:00,50.5,50.0,29.32,North,353,4.0,4.0,98,0.00,,,0.20,VWS V14.01,2013-03-07 22:48:00,
2013-03-07 22:53:00,50.5,50.0,29.32,North,353,0.0,2.7,98,0.00,,,0.20,VWS V14.01,2013-03-07 22:53:00,
2013-03-07 22:58:00,50.5,50.0,29.32,North,353,3.1,4.0,98,0.00,,,0.20,VWS V14.01,2013-03-07 22:58:00,
2013-03-07 23:03:00,50.5,50.0,29.32,ESE,112,0.0,3.6,98,0.00,,,0.20,VWS V14.01,2013-03-07 23:03:00,
2013-03-07 23:08:00,50.5,50.0,29.32,North,353,3.1,3.6,98,0.00,,,0.20,VWS V14.01,2013-03-07 23:08:00,
2013-03-07 23:13:00,50.5,50.0,29.32,East,81,4.0,4.0,98,0.00,,,0.20,VWS V14.01,2013-03-07 23:13:00,
2013-03-07 23:18:00,50.5,50.0,29.32,North,353,4.0,5.4,98,0.00,,,0.20,VWS V14.01,2013-03-07 23:18:00,
2013-03-07 23:23:00,50.5,50.0,29.32,East,95,3.6,4.0,98,0.00,,,0.20,VWS V14.01,2013-03-07 23:23:00,
2013-03-07 23:29:00,50.5,50.0,29.32,ESE,113,2.7,4.0,98,0.00,,,0.20,VWS V14.01,2013-03-07 23:29:00,
2013-03-07 23:34:00,50.5,50.0,29.32,East,91,2.7,4.0,98,0.00,,,0.20,VWS V14.01,2013-03-07 23:34:00,
2013-03-07 23:39:00,50.5,50.0,29.32,East,97,2.2,3.1,98,0.00,,,0.20,VWS V14.01,2013-03-07 23:39:00,
2013-03-07 23:44:00,50.5,50.0,29.32,North,353,2.2,2.2,98,0.00,,,0.20,VWS V14.01,2013-03-07 23:44:00,
2013-03-07 23:49:00,50.5,50.0,29.32,East,81,4.0,4.0,98,0.00,,,0.20,VWS V14.01,2013-03-07 23:49:00,
2013-03-07 23:54:00,50.5,50.0,29.32,North,353,4.0,4.0,98,0.00,,,0.20,VWS V14.01,2013-03-07 23:54:00,
2013-03-07 23:59:00,50.5,50.0,29.32,East,99,3.6,4.9,98,0.00,,,0.20,VWS V14.01,2013-03-07 23:59:00,